createdAt,value
2023-04-05T00:00:54.465Z,100988.27
2023-04-05T00:05:56.080Z,100986.17
2023-04-05T00:10:57.786Z,100979.94
2023-04-05T00:16:01.344Z,100973.17
2023-04-05T00:21:03.016Z,100969.72
2023-04-05T00:26:04.536Z,100965.14
2023-04-05T00:31:06.250Z,100962.82
2023-04-05T00:36:12.820Z,100958.42
2023-04-05T00:41:14.849Z,100958.05
2023-04-05T00:46:17.112Z,100958.98
2023-04-05T00:51:20.336Z,100957.61
2023-04-05T00:56:24.429Z,100956.84
2023-04-05T01:01:28.101Z,100957.99
2023-04-05T01:06:41.633Z,100956.31
2023-04-05T01:11:45.223Z,100952.16
2023-04-05T01:16:49.842Z,100952.28
2023-04-05T01:21:54.117Z,100947.45
2023-04-05T01:27:11.218Z,100949.30
2023-04-05T01:32:54.650Z,100952.58
2023-04-05T01:38:02.861Z,100954.13
2023-04-05T01:43:13.647Z,100950.73
2023-04-05T01:48:15.317Z,100951.80
2023-04-05T01:53:16.851Z,100952.15
2023-04-05T01:58:18.448Z,100950.26
2023-04-05T02:03:20.048Z,100948.55
2023-04-05T02:08:21.670Z,100949.17
2023-04-05T02:13:23.925Z,100947.80
2023-04-05T02:18:30.140Z,100953.42
2023-04-05T02:23:32.713Z,100951.44
2023-04-05T02:28:34.601Z,100949.71
2023-04-05T02:33:36.078Z,100948.96
2023-04-05T02:38:38.002Z,100945.67
2023-04-05T02:43:39.659Z,100944.27
2023-04-05T02:48:41.228Z,100939.56
2023-04-05T02:53:45.018Z,100935.98
2023-04-05T02:58:48.981Z,100939.23
2023-04-05T03:03:51.171Z,100942.15
2023-04-05T03:08:53.811Z,100947.24
2023-04-05T03:13:55.293Z,100947.12
2023-04-05T03:18:57.238Z,100951.81
2023-04-05T03:23:59.586Z,100953.73
2023-04-05T03:29:01.539Z,100952.15
2023-04-05T03:34:03.086Z,100948.16
2023-04-05T03:39:04.638Z,100947.73
2023-04-05T03:44:07.261Z,100946.25
2023-04-05T03:49:08.816Z,100947.08
2023-04-05T03:54:10.391Z,100947.97
2023-04-05T03:59:11.980Z,100946.04
2023-04-05T04:04:13.715Z,100946.48
2023-04-05T04:09:15.748Z,100952.11
2023-04-05T04:14:17.278Z,100953.35
2023-04-05T04:19:19.238Z,100958.13
2023-04-05T04:24:20.802Z,100960.14
2023-04-05T04:29:31.016Z,100964.16
2023-04-05T04:34:34.679Z,100964.16
2023-04-05T04:39:39.747Z,100967.10
2023-04-05T04:44:42.697Z,100964.29
2023-04-05T04:49:44.274Z,100963.09
2023-04-05T04:54:47.289Z,100960.25
2023-04-05T04:59:48.784Z,100957.94
2023-04-05T05:04:50.269Z,100960.63
2023-04-05T05:09:54.024Z,100961.08
2023-04-05T05:14:55.535Z,100960.73
2023-04-05T05:19:57.103Z,100961.63
2023-04-05T05:24:58.616Z,100967.68
2023-04-05T05:30:00.275Z,100967.48
2023-04-05T05:35:01.819Z,100967.63
2023-04-05T05:40:05.285Z,100968.09
2023-04-05T05:45:08.106Z,100971.64
2023-04-05T05:50:10.193Z,100976.67
2023-04-05T05:55:11.732Z,100984.72
2023-04-05T06:00:14.369Z,100983.36
2023-04-05T06:05:16.271Z,100983.80
2023-04-05T06:10:17.879Z,100985.52
2023-04-05T06:15:19.348Z,100985.92
2023-04-05T06:20:20.868Z,100987.86
2023-04-05T06:25:22.448Z,100985.64
2023-04-05T06:30:23.932Z,100990.39
2023-04-05T06:35:26.755Z,100989.65
2023-04-05T06:40:28.272Z,100994.02
2023-04-05T06:45:29.815Z,100998.38
2023-04-05T06:50:31.383Z,100999.91
2023-04-05T06:55:33.062Z,101000.88
2023-04-05T07:00:35.935Z,100998.71
2023-04-05T07:05:37.480Z,101002.03
2023-04-05T07:10:40.467Z,101008.48
2023-04-05T07:15:42.164Z,101008.18
2023-04-05T07:20:48.009Z,101004.81
2023-04-05T07:25:49.491Z,101006.27
2023-04-05T07:30:55.005Z,101005.53
2023-04-05T07:35:59.175Z,101002.70
2023-04-05T07:41:00.965Z,101005.88
2023-04-05T07:46:04.167Z,101006.20
2023-04-05T07:51:08.388Z,101009.59
2023-04-05T07:56:11.164Z,101008.66
2023-04-05T08:01:12.736Z,101011.63
2023-04-05T08:06:19.257Z,101009.85
2023-04-05T08:11:21.619Z,101009.42
2023-04-05T08:16:23.218Z,101015.95
2023-04-05T08:21:26.113Z,101016.20
2023-04-05T08:26:27.585Z,101011.60
2023-04-05T08:31:29.450Z,101007.50
2023-04-05T08:36:31.029Z,101007.13
2023-04-05T08:41:37.456Z,101006.59
2023-04-05T08:46:39.421Z,101007.39
2023-04-05T08:51:41.018Z,101008.26
2023-04-05T08:56:45.858Z,101005.73
2023-04-05T09:01:50.093Z,101006.48
2023-04-05T09:06:52.729Z,101003.44
2023-04-05T09:11:57.639Z,101002.99
2023-04-05T09:17:03.368Z,101002.20
2023-04-05T09:22:09.074Z,100998.41
2023-04-05T09:27:15.377Z,100994.42
2023-04-05T09:32:21.388Z,100999.34
2023-04-05T09:37:23.186Z,100999.61
2023-04-05T09:42:24.877Z,101000.54
2023-04-05T09:47:31.438Z,101004.29
2023-04-05T09:52:33.203Z,101001.02
2023-04-05T09:57:37.567Z,101003.88
2023-04-05T10:02:40.594Z,101001.83
2023-04-05T10:07:43.085Z,101002.02
2023-04-05T10:18:18.975Z,100994.79
2023-04-05T10:23:33.543Z,100995.33
2023-04-05T10:28:43.693Z,100996.48
2023-04-05T10:33:48.027Z,100997.33
2023-04-05T10:39:00.417Z,100993.12
2023-04-05T10:44:11.885Z,100991.30
2023-04-05T10:49:35.417Z,100995.15
2023-04-05T10:54:37.541Z,100992.27
2023-04-05T10:59:45.227Z,100993.21
2023-04-05T11:04:55.519Z,100994.70
2023-04-05T11:10:05.739Z,100992.52
2023-04-05T11:15:42.863Z,100990.80
2023-04-05T11:20:51.912Z,100995.02
2023-04-05T11:26:05.312Z,100991.42
2023-04-05T11:31:18.478Z,100989.42
2023-04-05T11:36:50.468Z,100983.76
2023-04-05T11:42:07.005Z,100991.64
2023-04-05T11:47:09.320Z,100995.54
2023-04-05T11:52:12.136Z,101000.45
2023-04-05T11:57:16.774Z,101000.45
2023-04-05T12:02:18.360Z,101005.15
2023-04-05T12:07:20.628Z,101008.20
2023-04-05T12:12:22.168Z,101005.38
2023-04-05T12:17:38.444Z,101003.23
2023-04-05T12:22:42.038Z,101003.41
2023-04-05T12:27:44.126Z,100999.24
2023-04-05T12:32:55.265Z,100995.83
2023-04-05T12:37:58.277Z,100995.63
2023-04-05T12:43:07.551Z,100992.92
2023-04-05T12:48:12.108Z,100993.75
2023-04-05T12:53:21.198Z,100992.48
2023-04-05T12:58:32.228Z,100992.57
2023-04-05T13:03:33.938Z,100990.54
2023-04-05T13:08:35.546Z,100989.73
2023-04-05T13:13:37.078Z,100988.81
2023-04-05T13:18:38.691Z,100995.34
2023-04-05T13:23:41.399Z,100995.99
2023-04-05T13:28:43.010Z,100991.34
2023-04-05T13:33:44.585Z,100992.27
2023-04-05T13:38:46.412Z,100996.10
2023-04-05T13:43:47.955Z,100990.38
2023-04-05T13:48:49.466Z,100988.91
2023-04-05T13:53:51.215Z,100991.11
2023-04-05T13:58:52.790Z,100991.52
2023-04-05T14:03:54.499Z,100987.45
2023-04-05T14:08:56.185Z,100985.66
2023-04-05T14:13:57.999Z,100985.02
2023-04-05T14:18:59.515Z,100982.79
2023-04-05T14:24:01.101Z,100983.48
2023-04-05T14:29:02.687Z,100985.48
2023-04-05T14:34:04.324Z,100987.52
2023-04-05T14:39:05.852Z,100984.20
2023-04-05T14:44:07.370Z,100985.92
2023-04-05T14:49:08.894Z,100987.14
2023-04-05T14:54:10.684Z,100989.99
2023-04-05T14:59:12.274Z,100991.90
2023-04-05T15:04:13.901Z,100991.71
2023-04-05T15:09:15.492Z,100991.23
2023-04-05T15:14:28.914Z,100996.34
2023-04-05T15:19:35.490Z,100997.24
2023-04-05T15:24:38.065Z,100995.85
2023-04-05T15:29:39.640Z,100996.13
2023-04-05T15:34:41.311Z,101000.62
2023-04-05T15:39:42.895Z,101006.35
2023-04-05T15:44:44.536Z,101006.09
2023-04-05T15:49:46.334Z,101010.46
2023-04-05T15:54:48.001Z,101009.13
2023-04-05T15:59:49.893Z,101005.08
2023-04-05T16:04:51.629Z,101000.70
2023-04-05T16:09:57.072Z,100998.16
2023-04-05T16:14:58.661Z,100998.09
2023-04-05T16:20:00.298Z,100993.46
2023-04-05T16:25:01.933Z,100991.48
2023-04-05T16:30:07.520Z,100989.54
2023-04-05T16:35:10.130Z,100987.43
2023-04-05T16:40:12.915Z,100992.72
2023-04-05T16:45:14.432Z,100995.13
2023-04-05T16:50:15.985Z,100998.25
2023-04-05T16:55:17.664Z,100996.91
2023-04-05T17:00:26.247Z,101001.09
2023-04-05T17:05:27.821Z,100998.98
2023-04-05T17:10:29.352Z,100998.59
2023-04-05T17:15:31.033Z,101003.77
2023-04-05T17:20:32.871Z,101012.80
2023-04-05T17:25:34.602Z,101014.07
2023-04-05T17:30:42.344Z,101015.23
2023-04-05T17:35:44.359Z,101018.67
2023-04-05T17:40:46.326Z,101024.55
2023-04-05T17:45:48.096Z,101029.02
2023-04-05T17:50:49.694Z,101027.99
2023-04-05T17:55:51.256Z,101033.82
2023-04-05T18:00:53.252Z,101040.42
2023-04-05T18:05:57.762Z,101042.64
2023-04-05T18:11:00.143Z,101047.87
2023-04-05T18:16:01.903Z,101053.08
2023-04-05T18:21:04.921Z,101053.36
2023-04-05T18:26:07.967Z,101056.55
2023-04-05T18:31:10.184Z,101059.36
2023-04-05T18:36:12.829Z,101064.39
2023-04-05T18:41:15.469Z,101066.02
2023-04-05T18:46:18.766Z,101067.66
2023-04-05T18:51:22.461Z,101066.94
2023-04-05T18:56:24.081Z,101066.51
2023-04-05T19:01:26.221Z,101071.48
2023-04-05T19:06:28.261Z,101068.92
2023-04-05T19:11:29.847Z,101070.27
2023-04-05T19:16:31.764Z,101076.28
2023-04-05T19:21:33.636Z,101083.83
2023-04-05T19:26:35.622Z,101086.02
2023-04-05T19:31:37.863Z,101082.06
2023-04-05T19:36:39.987Z,101082.33
2023-04-05T19:41:41.817Z,101086.77
2023-04-05T19:46:43.352Z,101079.35
2023-04-05T19:51:45.378Z,101079.64
2023-04-05T19:56:46.881Z,101077.84
2023-04-05T20:01:48.560Z,101078.76
2023-04-05T20:06:54.326Z,101078.37
2023-04-05T20:12:02.002Z,101068.42
2023-04-05T20:17:05.072Z,101065.54
2023-04-05T20:22:08.600Z,101061.10
2023-04-05T20:27:12.285Z,101067.86
2023-04-05T20:32:14.315Z,101066.27
2023-04-05T20:37:16.257Z,101065.36
2023-04-05T20:42:17.784Z,101062.38
2023-04-05T20:47:19.355Z,101063.48
2023-04-05T20:52:20.938Z,101063.45
2023-04-05T20:57:22.670Z,101062.37
2023-04-05T21:02:24.302Z,101065.89
2023-04-05T21:07:26.026Z,101058.91
2023-04-05T21:12:27.668Z,101062.51
2023-04-05T21:17:29.219Z,101062.75
2023-04-05T21:22:30.828Z,101059.83
2023-04-05T21:27:33.444Z,101055.23
2023-04-05T21:32:36.123Z,101051.92
2023-04-05T21:37:37.766Z,101051.48
2023-04-05T21:42:39.341Z,101046.24
2023-04-05T21:47:41.048Z,101043.06
2023-04-05T21:52:43.006Z,101038.73
2023-04-05T21:57:44.621Z,101040.17
2023-04-05T22:02:46.830Z,101033.96
2023-04-05T22:07:48.497Z,101034.27
2023-04-05T22:12:50.618Z,101028.20
2023-04-05T22:17:52.258Z,101024.96
2023-04-05T22:22:55.058Z,101019.98
2023-04-05T22:28:00.008Z,101020.74
2023-04-05T22:33:02.191Z,101019.38
2023-04-05T22:38:03.883Z,101020.08
2023-04-05T22:43:05.401Z,101022.60
2023-04-05T22:48:07.207Z,101019.80
2023-04-05T22:53:13.406Z,101018.64
2023-04-05T22:58:16.925Z,101014.25
2023-04-05T23:03:24.376Z,101010.21
2023-04-05T23:08:26.074Z,101003.73
2023-04-05T23:13:27.674Z,101001.65
2023-04-05T23:18:29.268Z,101000.59
2023-04-05T23:23:30.865Z,100993.80
2023-04-05T23:28:32.452Z,100996.93
2023-04-05T23:33:34.185Z,100993.48
2023-04-05T23:38:36.237Z,100987.67
2023-04-05T23:43:37.810Z,100985.33
2023-04-05T23:48:39.545Z,100985.48
2023-04-05T23:53:41.451Z,100986.45
2023-04-05T23:58:43.034Z,100988.51
